createdAt,value
2018-12-06T00:01:35.537Z,16.67
2018-12-06T00:04:03.651Z,15.47
2018-12-06T00:06:31.718Z,17.90
2018-12-06T00:08:59.782Z,18.47
2018-12-06T00:11:27.869Z,16.90
2018-12-06T00:13:55.976Z,17.57
2018-12-06T00:16:24.098Z,18.10
2018-12-06T00:19:10.409Z,18.30
2018-12-06T00:21:38.538Z,16.13
2018-12-06T00:24:06.781Z,13.80
2018-12-06T00:26:34.963Z,17.77
2018-12-06T00:29:03.159Z,16.93
2018-12-06T00:31:31.209Z,18.70
2018-12-06T00:33:59.254Z,15.03
2018-12-06T00:36:27.396Z,19.53
2018-12-06T00:38:55.487Z,26.97
2018-12-06T00:41:23.581Z,16.77
2018-12-06T00:43:51.717Z,14.97
2018-12-06T00:46:19.926Z,15.80
2018-12-06T00:48:47.969Z,12.40
2018-12-06T00:51:16.006Z,13.83
2018-12-06T00:53:44.068Z,14.47
2018-12-06T00:56:12.097Z,16.07
2018-12-06T00:58:40.151Z,12.50
2018-12-06T01:01:08.298Z,12.37
2018-12-06T01:03:36.419Z,14.73
2018-12-06T01:06:04.538Z,14.00
2018-12-06T01:08:32.585Z,11.57
2018-12-06T01:11:00.624Z,12.17
2018-12-06T01:13:28.662Z,12.50
2018-12-06T01:15:56.713Z,11.00
2018-12-06T01:18:24.823Z,8.97
2018-12-06T01:20:52.866Z,13.03
2018-12-06T01:23:20.939Z,11.23
2018-12-06T01:25:48.987Z,9.80
2018-12-06T01:28:17.094Z,10.20
2018-12-06T01:30:45.206Z,9.90
2018-12-06T01:33:13.243Z,7.83
2018-12-06T01:35:41.303Z,10.03
2018-12-06T01:38:09.347Z,8.13
2018-12-06T01:40:37.471Z,8.60
2018-12-06T01:43:05.589Z,7.80
2018-12-06T01:45:33.606Z,8.80
2018-12-06T01:48:01.647Z,8.20
2018-12-06T01:50:29.746Z,6.90
2018-12-06T01:52:57.785Z,8.77
2018-12-06T01:55:25.982Z,7.87
2018-12-06T01:57:54.021Z,6.83
2018-12-06T02:00:23.143Z,7.30
2018-12-06T02:02:51.236Z,7.33
2018-12-06T02:05:19.281Z,7.87
2018-12-06T02:07:47.353Z,8.10
2018-12-06T02:10:15.364Z,8.00
2018-12-06T02:12:43.412Z,9.00
2018-12-06T02:15:11.505Z,7.30
2018-12-06T02:17:39.548Z,7.53
2018-12-06T02:20:07.632Z,8.37
2018-12-06T02:22:35.777Z,8.73
2018-12-06T02:25:03.925Z,7.80
2018-12-06T02:27:32.116Z,6.27
2018-12-06T02:30:00.260Z,9.80
2018-12-06T02:32:28.297Z,8.87
2018-12-06T02:34:56.416Z,8.63
2018-12-06T02:37:24.614Z,10.47
2018-12-06T02:39:52.697Z,8.10
2018-12-06T02:42:20.741Z,8.20
2018-12-06T02:44:48.780Z,8.37
2018-12-06T02:47:16.876Z,10.53
2018-12-06T02:49:44.909Z,8.10
2018-12-06T02:52:13.004Z,7.80
2018-12-06T02:54:41.135Z,9.30
2018-12-06T02:57:09.194Z,8.03
2018-12-06T02:59:37.226Z,6.57
2018-12-06T03:02:05.353Z,8.93
2018-12-06T03:04:33.380Z,11.83
2018-12-06T03:07:01.490Z,8.23
2018-12-06T03:09:29.565Z,9.40
2018-12-06T03:11:57.594Z,10.70
2018-12-06T03:14:25.697Z,7.73
2018-12-06T03:16:53.778Z,8.43
2018-12-06T03:19:21.804Z,9.70
2018-12-06T03:21:50.138Z,12.10
2018-12-06T03:24:18.158Z,11.70
2018-12-06T03:26:46.197Z,8.80
2018-12-06T03:29:14.245Z,7.60
2018-12-06T03:31:42.342Z,12.03
2018-12-06T03:34:10.384Z,8.00
2018-12-06T03:36:38.414Z,8.13
2018-12-06T03:39:07.708Z,7.43
2018-12-06T03:41:35.912Z,9.40
2018-12-06T03:44:04.025Z,25.00
2018-12-06T03:46:32.194Z,8.67
2018-12-06T03:49:00.244Z,7.23
2018-12-06T03:51:28.285Z,8.37
2018-12-06T03:53:56.329Z,6.97
2018-12-06T03:56:24.352Z,6.47
2018-12-06T03:58:52.381Z,8.63
2018-12-06T04:01:20.536Z,11.60
2018-12-06T04:03:48.573Z,8.63
2018-12-06T04:06:16.669Z,11.60
2018-12-06T04:08:44.709Z,7.10
2018-12-06T04:11:12.750Z,5.83
2018-12-06T04:13:40.782Z,9.30
2018-12-06T04:16:08.828Z,4.87
2018-12-06T04:18:36.853Z,6.27
2018-12-06T04:21:04.893Z,8.40
2018-12-06T04:23:32.984Z,7.53
2018-12-06T04:26:01.109Z,7.27
2018-12-06T04:28:29.141Z,8.37
2018-12-06T04:30:57.189Z,8.80
2018-12-06T04:33:25.229Z,9.77
2018-12-06T04:35:53.358Z,11.00
2018-12-06T04:38:21.460Z,8.03
2018-12-06T04:40:49.503Z,9.60
2018-12-06T04:43:17.625Z,13.30
2018-12-06T04:45:45.761Z,20.93
2018-12-06T04:48:21.619Z,13.50
2018-12-06T04:50:43.959Z,11.90
2018-12-06T04:53:11.989Z,10.67
2018-12-06T04:55:40.033Z,15.83
2018-12-06T04:58:08.495Z,8.73
2018-12-06T05:00:36.534Z,9.37
2018-12-06T05:03:04.659Z,12.87
2018-12-06T05:05:32.692Z,9.53
2018-12-06T05:08:00.745Z,11.67
2018-12-06T05:10:28.816Z,16.60
2018-12-06T05:12:56.858Z,9.93
2018-12-06T05:15:25.077Z,10.67
2018-12-06T05:17:53.189Z,9.00
2018-12-06T05:20:21.284Z,11.30
2018-12-06T05:22:49.367Z,11.30
2018-12-06T05:25:17.402Z,10.23
2018-12-06T05:27:45.470Z,10.90
2018-12-06T05:30:13.514Z,10.93
2018-12-06T05:32:41.598Z,11.50
2018-12-06T05:35:09.724Z,10.07
2018-12-06T05:37:37.881Z,15.77
2018-12-06T05:40:06.053Z,12.93
2018-12-06T05:42:34.186Z,12.00
2018-12-06T05:45:02.206Z,9.07
2018-12-06T05:47:30.279Z,11.00
2018-12-06T05:49:58.369Z,11.07
2018-12-06T05:52:26.428Z,14.87
2018-12-06T05:54:54.477Z,14.50
2018-12-06T05:57:22.574Z,10.80
2018-12-06T05:59:50.689Z,13.10
2018-12-06T06:02:18.752Z,10.57
2018-12-06T06:04:46.879Z,6.93
2018-12-06T06:07:15.016Z,6.70
2018-12-06T06:09:43.075Z,7.97
2018-12-06T06:12:11.121Z,8.77
2018-12-06T06:14:39.477Z,6.93
2018-12-06T06:17:07.559Z,11.33
2018-12-06T06:19:35.612Z,8.93
2018-12-06T06:22:04.775Z,11.00
2018-12-06T06:24:32.846Z,10.07
2018-12-06T06:27:00.892Z,4.97
2018-12-06T06:29:28.948Z,8.13
2018-12-06T06:31:57.023Z,9.20
2018-12-06T06:34:25.177Z,8.10
2018-12-06T06:36:53.234Z,6.10
2018-12-06T06:39:21.273Z,6.97
2018-12-06T06:41:49.306Z,6.10
2018-12-06T06:44:17.730Z,5.93
2018-12-06T06:46:45.882Z,6.30
2018-12-06T06:49:14.234Z,7.70
2018-12-06T06:51:42.409Z,9.27
2018-12-06T06:54:10.465Z,8.00
2018-12-06T06:56:38.596Z,6.27
2018-12-06T06:59:07.272Z,6.47
2018-12-06T07:01:35.947Z,6.73
2018-12-06T07:04:05.292Z,5.53
2018-12-06T07:06:33.764Z,6.40
2018-12-06T07:09:02.975Z,5.57
2018-12-06T07:11:32.712Z,6.40
2018-12-06T07:14:01.487Z,5.43
2018-12-06T07:16:30.434Z,5.63
2018-12-06T07:18:59.221Z,4.90
2018-12-06T07:21:28.056Z,8.30
2018-12-06T07:23:57.185Z,3.53
2018-12-06T07:26:26.028Z,4.53
2018-12-06T07:28:54.061Z,3.57
2018-12-06T07:31:22.748Z,3.50
2018-12-06T07:33:51.737Z,6.00
2018-12-06T07:36:19.857Z,4.13
2018-12-06T07:38:48.578Z,4.00
2018-12-06T07:41:17.308Z,3.77
2018-12-06T07:43:45.990Z,4.00
2018-12-06T07:46:14.695Z,4.60
2018-12-06T07:48:43.422Z,3.10
2018-12-06T07:51:12.131Z,3.70
2018-12-06T07:53:40.658Z,4.20
2018-12-06T07:56:10.218Z,5.10
2018-12-06T07:58:38.944Z,3.90
2018-12-06T08:01:07.669Z,4.77
2018-12-06T08:03:36.231Z,5.23
2018-12-06T08:06:05.019Z,5.40
2018-12-06T08:08:33.640Z,6.70
2018-12-06T08:11:02.353Z,3.40
2018-12-06T08:13:30.961Z,5.10
2018-12-06T08:15:59.683Z,3.93
2018-12-06T08:18:28.276Z,4.20
2018-12-06T08:20:57.210Z,3.40
2018-12-06T08:23:26.106Z,3.90
2018-12-06T08:25:54.864Z,8.13
2018-12-06T08:28:23.532Z,3.00
2018-12-06T08:30:52.327Z,2.87
2018-12-06T08:33:20.919Z,2.67
2018-12-06T08:35:49.234Z,3.03
2018-12-06T08:38:17.888Z,2.27
2018-12-06T08:40:46.501Z,4.63
2018-12-06T08:43:15.362Z,1.90
2018-12-06T08:45:44.046Z,1.70
2018-12-06T08:48:12.694Z,2.00
2018-12-06T08:50:41.416Z,2.90
2018-12-06T08:53:09.545Z,2.30
2018-12-06T08:55:38.408Z,3.47
2018-12-06T08:58:07.451Z,2.53
2018-12-06T09:00:35.613Z,2.60
2018-12-06T09:03:04.228Z,2.90
2018-12-06T09:05:32.293Z,4.40
2018-12-06T09:08:00.390Z,2.43
2018-12-06T09:10:28.442Z,7.03
2018-12-06T09:12:56.477Z,6.57
2018-12-06T09:15:24.584Z,5.00
2018-12-06T09:17:52.771Z,2.80
2018-12-06T09:20:20.884Z,3.13
2018-12-06T09:22:48.964Z,4.50
2018-12-06T09:25:20.960Z,2.20
2018-12-06T09:27:47.334Z,3.20
2018-12-06T09:30:15.542Z,2.17
2018-12-06T09:32:43.588Z,1.60
2018-12-06T09:35:11.705Z,1.30
2018-12-06T09:37:40.790Z,2.00
2018-12-06T09:40:08.908Z,4.83
2018-12-06T09:42:37.068Z,2.53
2018-12-06T09:45:06.218Z,2.70
2018-12-06T09:47:34.353Z,2.40
2018-12-06T09:50:02.469Z,2.23
2018-12-06T09:52:30.648Z,2.27
2018-12-06T09:54:58.748Z,2.10
2018-12-06T09:57:26.829Z,1.50
2018-12-06T09:59:54.863Z,2.50
2018-12-06T10:02:22.898Z,2.23
2018-12-06T10:04:51.002Z,2.40
2018-12-06T10:07:19.141Z,2.53
2018-12-06T10:09:47.187Z,4.13
2018-12-06T10:12:15.259Z,6.10
2018-12-06T10:14:43.315Z,4.80
2018-12-06T10:17:11.386Z,5.43
2018-12-06T10:19:39.584Z,6.47
2018-12-06T10:22:07.798Z,4.27
2018-12-06T10:24:35.837Z,3.80
2018-12-06T10:27:03.974Z,7.27
2018-12-06T10:29:32.083Z,5.27
2018-12-06T10:32:00.134Z,2.73
2018-12-06T10:34:28.250Z,3.53
2018-12-06T10:36:56.302Z,3.03
2018-12-06T10:39:24.368Z,2.97
2018-12-06T10:41:52.470Z,2.47
2018-12-06T10:44:31.380Z,3.77
2018-12-06T10:46:59.533Z,3.50
2018-12-06T10:49:27.582Z,3.57
2018-12-06T10:51:55.683Z,3.87
2018-12-06T10:54:23.838Z,3.57
2018-12-06T10:56:51.981Z,2.47
2018-12-06T10:59:20.035Z,2.60
2018-12-06T11:01:53.434Z,2.20
2018-12-06T11:04:23.485Z,2.63
2018-12-06T11:06:51.572Z,3.00
2018-12-06T11:09:19.622Z,3.03
2018-12-06T11:11:48.666Z,2.50
2018-12-06T11:14:16.798Z,2.47
2018-12-06T11:16:44.853Z,3.00
2018-12-06T11:19:12.981Z,2.90
2018-12-06T11:21:41.092Z,3.43
2018-12-06T11:27:17.562Z,2.70
2018-12-06T11:29:45.598Z,2.57
2018-12-06T11:32:13.754Z,2.30
2018-12-06T11:34:41.806Z,2.77
2018-12-06T11:37:09.849Z,3.13
2018-12-06T11:39:37.922Z,2.43
2018-12-06T11:42:06.056Z,2.87
2018-12-06T11:44:34.160Z,3.00
2018-12-06T11:47:03.640Z,3.50
2018-12-06T11:49:31.703Z,4.87
2018-12-06T11:52:00.057Z,5.60
2018-12-06T11:54:28.149Z,3.53
2018-12-06T11:56:56.181Z,10.27
2018-12-06T11:59:24.313Z,6.00
2018-12-06T12:01:52.329Z,5.63
2018-12-06T12:04:20.433Z,8.80
2018-12-06T12:06:48.480Z,7.13
2018-12-06T12:09:16.537Z,9.00
2018-12-06T12:11:44.577Z,8.70
2018-12-06T12:14:12.690Z,7.77
2018-12-06T12:16:40.727Z,8.47
2018-12-06T12:19:08.768Z,12.63
2018-12-06T12:21:36.801Z,10.20
2018-12-06T12:24:05.923Z,13.90
2018-12-06T12:26:34.036Z,12.33
2018-12-06T12:29:02.094Z,13.87
2018-12-06T12:31:30.130Z,14.37
2018-12-06T12:33:58.258Z,16.87
2018-12-06T12:36:26.284Z,20.07
2018-12-06T12:38:54.608Z,21.40
2018-12-06T12:41:22.646Z,23.47
2018-12-06T12:43:50.898Z,19.63
2018-12-06T12:46:18.969Z,19.13
2018-12-06T12:48:48.039Z,28.77
2018-12-06T12:51:16.222Z,21.47
2018-12-06T12:53:44.289Z,21.97
2018-12-06T12:56:12.400Z,22.37
2018-12-06T12:58:40.604Z,21.93
2018-12-06T13:01:08.649Z,22.60
2018-12-06T13:03:36.693Z,21.87
2018-12-06T13:06:04.832Z,24.50
2018-12-06T13:08:32.876Z,22.97
2018-12-06T13:11:01.023Z,18.70
2018-12-06T13:13:29.168Z,20.43
2018-12-06T13:15:57.249Z,23.80
2018-12-06T13:18:25.357Z,20.47
2018-12-06T13:20:53.474Z,22.60
2018-12-06T13:23:21.636Z,28.33
2018-12-06T13:25:49.726Z,24.67
2018-12-06T13:28:18.026Z,21.63
2018-12-06T13:30:46.091Z,17.00
2018-12-06T13:33:14.116Z,14.23
2018-12-06T13:35:42.310Z,12.43
2018-12-06T13:38:10.373Z,12.90
2018-12-06T13:40:38.422Z,14.77
2018-12-06T13:43:06.539Z,9.60
2018-12-06T13:45:34.637Z,12.77
2018-12-06T13:48:02.706Z,8.00
2018-12-06T13:50:30.805Z,10.90
2018-12-06T13:52:58.971Z,8.10
2018-12-06T13:55:27.014Z,9.23
2018-12-06T13:57:55.145Z,18.47
2018-12-06T14:00:23.232Z,8.33
2018-12-06T14:02:51.289Z,9.77
2018-12-06T14:05:19.408Z,7.77
2018-12-06T14:07:47.447Z,6.43
2018-12-06T14:10:15.622Z,6.07
2018-12-06T14:12:43.658Z,6.70
2018-12-06T14:15:11.681Z,9.80
2018-12-06T14:17:39.725Z,7.10
2018-12-06T14:20:09.086Z,6.93
2018-12-06T14:22:37.133Z,7.40
2018-12-06T14:25:05.301Z,8.47
2018-12-06T14:27:33.441Z,9.37
2018-12-06T14:30:01.588Z,11.07
2018-12-06T14:32:29.636Z,8.30
2018-12-06T14:34:57.787Z,9.23
2018-12-06T14:37:25.856Z,10.70
2018-12-06T14:39:54.034Z,14.90
2018-12-06T14:42:22.213Z,9.00
2018-12-06T14:44:50.327Z,10.57
2018-12-06T14:47:18.385Z,17.80
2018-12-06T14:49:46.501Z,9.43
2018-12-06T14:52:14.540Z,7.63
2018-12-06T14:54:42.689Z,8.10
2018-12-06T14:57:12.458Z,10.10
2018-12-06T14:59:40.664Z,11.07
2018-12-06T15:02:08.998Z,13.50
2018-12-06T15:04:37.119Z,11.90
2018-12-06T15:07:05.234Z,11.90
2018-12-06T15:09:33.391Z,14.10
2018-12-06T15:12:01.558Z,16.73
2018-12-06T15:14:29.842Z,19.60
2018-12-06T15:16:57.921Z,19.33
2018-12-06T15:19:26.027Z,18.37
2018-12-06T15:21:54.154Z,23.53
2018-12-06T15:24:22.495Z,22.47
2018-12-06T15:26:50.629Z,20.43
2018-12-06T15:29:18.684Z,22.00
2018-12-06T15:31:46.809Z,18.83
2018-12-06T15:34:14.854Z,19.80
2018-12-06T15:36:42.944Z,18.83
2018-12-06T15:39:11.703Z,19.93
2018-12-06T15:41:39.751Z,17.63
2018-12-06T15:44:07.806Z,17.67
2018-12-06T15:46:36.180Z,16.27
2018-12-06T15:49:04.541Z,20.83
2018-12-06T15:51:32.659Z,16.77
2018-12-06T15:54:00.757Z,14.43
2018-12-06T15:56:29.095Z,16.50
2018-12-06T15:58:57.141Z,29.50
2018-12-06T16:01:25.304Z,16.90
2018-12-06T16:03:53.401Z,19.53
2018-12-06T16:06:21.501Z,16.57
2018-12-06T16:08:49.556Z,18.07
2018-12-06T16:11:17.667Z,15.40
2018-12-06T16:13:45.717Z,19.37
2018-12-06T16:16:14.038Z,16.93
2018-12-06T16:18:42.115Z,22.83
2018-12-06T16:21:10.200Z,19.27
2018-12-06T16:23:38.345Z,17.00
2018-12-06T16:26:06.512Z,21.93
2018-12-06T16:28:34.564Z,12.77
2018-12-06T16:31:02.634Z,19.60
2018-12-06T16:33:30.680Z,16.93
2018-12-06T16:35:58.743Z,9.47
2018-12-06T16:38:26.862Z,10.13
2018-12-06T16:40:55.010Z,6.47
2018-12-06T16:43:23.142Z,7.57
2018-12-06T16:45:51.334Z,8.60
2018-12-06T16:51:01.869Z,6.13
2018-12-06T16:53:30.127Z,14.70
2018-12-06T16:56:01.507Z,12.90
2018-12-06T16:58:29.546Z,6.73
2018-12-06T17:00:57.660Z,13.23
2018-12-06T17:03:25.764Z,11.90
2018-12-06T17:05:53.854Z,8.30
2018-12-06T17:08:21.884Z,12.00
2018-12-06T17:10:49.955Z,12.90
2018-12-06T17:13:17.988Z,10.70
2018-12-06T17:15:46.080Z,12.53
2018-12-06T17:18:14.289Z,10.13
2018-12-06T17:20:42.368Z,13.20
2018-12-06T17:23:10.516Z,10.33
2018-12-06T17:25:38.721Z,13.10
2018-12-06T17:28:06.820Z,6.70
2018-12-06T17:30:34.893Z,6.57
2018-12-06T17:33:02.973Z,15.03
2018-12-06T17:35:31.195Z,10.70
2018-12-06T17:37:59.247Z,11.07
2018-12-06T17:40:27.285Z,5.17
2018-12-06T17:42:55.442Z,8.40
2018-12-06T17:45:23.500Z,11.93
2018-12-06T17:47:51.570Z,8.70
2018-12-06T17:50:19.790Z,9.17
2018-12-06T17:52:47.914Z,10.43
2018-12-06T17:55:15.972Z,9.23
2018-12-06T17:57:44.098Z,7.67
2018-12-06T18:00:12.258Z,7.80
2018-12-06T18:02:40.656Z,9.53
2018-12-06T18:05:09.019Z,8.83
2018-12-06T18:07:37.074Z,5.43
2018-12-06T18:10:06.018Z,5.03
2018-12-06T18:12:34.085Z,5.13
2018-12-06T18:15:02.141Z,5.27
2018-12-06T18:17:30.268Z,4.50
2018-12-06T18:19:58.375Z,8.43
2018-12-06T18:22:26.545Z,5.90
2018-12-06T18:24:54.589Z,4.90
2018-12-06T18:27:22.711Z,4.17
2018-12-06T18:29:50.799Z,7.40
2018-12-06T18:32:18.865Z,6.73
2018-12-06T18:34:46.928Z,4.90
2018-12-06T18:37:15.154Z,4.63
2018-12-06T18:39:43.350Z,6.00
2018-12-06T18:42:11.490Z,7.97
2018-12-06T18:44:39.724Z,10.30
2018-12-06T18:47:08.229Z,6.97
2018-12-06T18:49:36.475Z,7.30
2018-12-06T18:52:04.620Z,5.80
2018-12-06T18:54:32.673Z,6.07
2018-12-06T18:57:00.729Z,7.43
2018-12-06T18:59:28.881Z,10.77
2018-12-06T19:01:57.006Z,4.87
2018-12-06T19:04:25.135Z,10.67
2018-12-06T19:06:53.252Z,7.57
2018-12-06T19:09:21.298Z,7.60
2018-12-06T19:11:49.446Z,8.73
2018-12-06T19:14:21.719Z,6.60
2018-12-06T19:16:47.590Z,6.77
2018-12-06T19:19:15.699Z,6.60
2018-12-06T19:21:43.755Z,8.57
2018-12-06T19:24:11.970Z,7.47
2018-12-06T19:26:40.036Z,7.90
2018-12-06T19:29:08.123Z,6.57
2018-12-06T19:31:36.179Z,9.03
2018-12-06T19:34:04.344Z,5.80
2018-12-06T19:36:32.482Z,8.67
2018-12-06T19:39:00.592Z,6.80
2018-12-06T19:41:28.692Z,9.00
2018-12-06T19:43:56.782Z,9.30
2018-12-06T19:46:24.912Z,8.17
2018-12-06T19:48:52.958Z,6.70
2018-12-06T19:51:21.036Z,10.83
2018-12-06T19:53:49.098Z,7.40
2018-12-06T19:56:17.292Z,7.30
2018-12-06T19:58:45.353Z,7.67
2018-12-06T20:01:14.449Z,7.73
2018-12-06T20:03:42.754Z,6.13
2018-12-06T20:06:10.822Z,5.00
2018-12-06T20:08:38.892Z,7.13
2018-12-06T20:11:07.029Z,5.37
2018-12-06T20:13:35.166Z,6.27
2018-12-06T20:16:03.252Z,5.97
2018-12-06T20:18:31.288Z,6.93
2018-12-06T20:20:59.438Z,6.70
2018-12-06T20:23:27.563Z,7.40
2018-12-06T20:25:55.680Z,8.70
2018-12-06T20:28:26.666Z,5.80
2018-12-06T20:30:53.834Z,8.30
2018-12-06T20:33:22.122Z,8.97
2018-12-06T20:35:50.595Z,7.70
2018-12-06T20:38:18.741Z,7.27
2018-12-06T20:40:46.809Z,6.40
2018-12-06T20:43:14.933Z,5.03
2018-12-06T20:45:43.083Z,5.50
2018-12-06T20:48:11.211Z,6.50
2018-12-06T20:50:39.284Z,3.83
2018-12-06T20:53:07.449Z,3.73
2018-12-06T20:55:35.565Z,3.50
2018-12-06T20:58:03.608Z,4.83
2018-12-06T21:00:31.714Z,4.33
2018-12-06T21:02:59.770Z,5.80
2018-12-06T21:05:28.069Z,9.23
2018-12-06T21:07:56.216Z,3.87
2018-12-06T21:10:24.515Z,5.70
2018-12-06T21:12:52.592Z,4.10
2018-12-06T21:15:20.947Z,4.57
2018-12-06T21:17:49.641Z,3.60
2018-12-06T21:20:17.719Z,3.90
2018-12-06T21:22:45.810Z,2.43
2018-12-06T21:25:13.922Z,4.00
2018-12-06T21:27:42.064Z,3.23
2018-12-06T21:30:10.714Z,3.50
2018-12-06T21:32:38.760Z,4.10
2018-12-06T21:35:06.910Z,6.30
2018-12-06T21:37:34.933Z,4.63
2018-12-06T21:40:03.204Z,5.97
2018-12-06T21:42:31.710Z,4.10
2018-12-06T21:44:59.766Z,3.47
2018-12-06T21:47:27.829Z,5.37
2018-12-06T21:49:56.047Z,3.87
2018-12-06T21:52:24.299Z,3.50
2018-12-06T21:54:52.417Z,3.50
2018-12-06T21:57:20.762Z,3.50
2018-12-06T21:59:48.830Z,2.57
2018-12-06T22:02:26.655Z,2.53
2018-12-06T22:04:55.693Z,2.30
2018-12-06T22:07:23.942Z,1.97
2018-12-06T22:09:51.975Z,2.10
2018-12-06T22:12:20.136Z,2.20
2018-12-06T22:14:48.591Z,1.80
2018-12-06T22:17:16.860Z,2.30
2018-12-06T22:19:45.047Z,2.83
2018-12-06T22:22:13.559Z,2.80
2018-12-06T22:24:41.659Z,1.93
2018-12-06T22:27:10.031Z,2.60
2018-12-06T22:32:18.914Z,2.00
2018-12-06T22:34:47.255Z,2.83
2018-12-06T22:37:15.692Z,2.50
2018-12-06T22:39:43.815Z,2.40
2018-12-06T22:42:12.086Z,2.63
2018-12-06T22:44:40.134Z,2.57
2018-12-06T22:47:08.269Z,2.40
2018-12-06T22:49:36.337Z,2.77
2018-12-06T22:52:04.470Z,2.80
2018-12-06T22:54:32.604Z,2.70
2018-12-06T22:57:00.722Z,3.57
2018-12-06T22:59:28.765Z,3.03
2018-12-06T23:01:59.278Z,3.47
2018-12-06T23:04:27.397Z,2.97
2018-12-06T23:06:55.505Z,3.87
2018-12-06T23:09:23.668Z,3.67
2018-12-06T23:11:51.764Z,3.60
2018-12-06T23:14:19.852Z,3.67
2018-12-06T23:16:47.994Z,4.43
2018-12-06T23:19:16.187Z,4.87
2018-12-06T23:21:44.315Z,4.47
2018-12-06T23:24:12.350Z,5.33
2018-12-06T23:26:40.474Z,4.87
2018-12-06T23:29:08.501Z,4.90
2018-12-06T23:31:36.681Z,7.53
2018-12-06T23:34:04.803Z,5.50
2018-12-06T23:36:32.897Z,6.73
2018-12-06T23:39:00.962Z,6.00
2018-12-06T23:41:29.087Z,6.00
2018-12-06T23:43:57.160Z,6.20
2018-12-06T23:46:25.261Z,6.07
2018-12-06T23:48:53.419Z,6.07
2018-12-06T23:51:34.229Z,7.10
2018-12-06T23:54:02.312Z,7.03
2018-12-06T23:56:30.490Z,6.40
2018-12-06T23:58:58.611Z,6.20
